Latest Weather Observations for Ernabella/Pukatja

IDD60801

Issued at 8:05 pm CST Friday 28 November 2014 (issued every 30 minutes, with the page automatically refreshed every 10 minutes)

About weather observations | Map of weather stations | Latest weather observations for NT | Other Formats
Station Details ID: 016097 Name: PUKATJA Lat: -26.26 Lon: 132.18 Height: 703.2 m
Data from the previous 72 hours. | See also: Recent months at Ernabella/Pukatja
Date/Time
CST
Temp
°C
App
Temp
°C
Dew
Point
Rel
Hum
%
Delta-T
°C
Wind Press
QNH
hPa
Press
MSL
hPa
Rain
since 9 am
mm
Dir
 
Spd
km/h
Gust
km/h
Spd
kts
Gust
kts
28/08:00pm 30.6 24.7 -5.8 9 16.4 E 17 20 9 11 1012.9 1008.8 0.0
28/07:30pm 31.1 25.1 -7.0 8 16.8 E 17 22 9 12 1012.7 - 0.0
28/07:00pm 32.1 25.8 -6.3 8 17.3 E 19 26 10 14 1012.3 - 0.0
28/06:30pm 33.2 27.5 -7.2 7 18.1 ESE 15 24 8 13 1012.1 - 0.0
28/06:00pm 33.8 27.8 -6.8 7 18.4 SE 17 28 9 15 1012.1 - 0.0
28/05:30pm 34.0 26.7 -6.6 7 18.5 ESE 24 30 13 16 1012.1 - 0.0
28/05:00pm 34.4 29.2 -6.3 7 18.7 S 13 22 7 12 1012.2 1008.1 0.0
28/04:30pm 35.1 29.9 -5.8 7 19.0 SE 13 22 7 12 1012.2 - 0.0
28/04:00pm 35.3 29.2 -7.7 6 19.4 S 17 30 9 16 1012.5 - 0.0
28/03:30pm 35.4 29.5 -5.6 7 19.2 E 17 32 9 17 1012.9 - 0.0
28/03:00pm 35.1 29.6 -5.8 7 19.0 S 15 26 8 14 1013.3 - 0.0
28/02:30pm 34.9 29.7 -6.0 7 18.9 E 13 24 7 13 1013.7 - 0.0
28/02:00pm 34.6 28.6 -6.2 7 18.8 E 17 22 9 12 1014.3 1010.2 0.0
28/01:30pm 34.7 29.5 -6.1 7 18.8 N 13 24 7 13 1014.7 - 0.0
28/01:00pm 33.8 28.9 -6.8 7 18.4 ESE 11 17 6 9 1015.1 - 0.0
28/12:30pm 33.4 27.7 -7.0 7 18.2 E 15 30 8 16 1015.6 - 0.0
28/12:00pm 32.2 27.0 -6.2 8 17.3 SSE 13 20 7 11 1016.2 - 0.0
28/11:30am 31.9 26.3 -6.4 8 17.2 NE 15 26 8 14 1016.6 - 0.0
28/11:00am 32.2 26.6 -6.2 8 17.3 NE 15 24 8 13 1017.1 1013.0 0.0
28/10:30am 31.3 24.9 -5.3 9 16.6 ENE 20 33 11 18 1017.3 - 0.0
28/10:00am 30.8 24.5 -5.7 9 16.4 ENE 19 32 10 17 1017.6 - 0.0
28/09:30am 29.1 21.9 -5.6 10 15.4 ENE 24 30 13 16 1017.8 - 0.0
28/09:00am 27.6 20.8 -5.5 11 14.6 E 22 30 12 16 1018.0 - 0.0
28/08:30am 26.3 20.5 -4.3 13 13.6 ENE 17 26 9 14 1018.1 - 0.0
28/08:00am 24.7 19.0 -3.6 15 12.6 ENE 17 24 9 13 1018.2 1014.2 0.0
28/07:30am 23.4 18.2 -3.0 17 11.8 ENE 15 20 8 11 1017.9 - 0.0
28/07:00am 22.3 17.7 -3.9 17 11.4 E 11 13 6 7 1017.9 - 0.0
28/06:30am 21.0 16.5 -3.5 19 10.6 E 11 13 6 7 1017.6 - 0.0
28/06:00am 20.5 15.9 -3.9 19 10.4 ESE 11 13 6 7 1017.7 - 0.0
28/05:30am 19.8 14.8 -4.5 19 10.2 E 13 15 7 8 1017.3 - 0.0
28/05:00am 19.7 15.1 -4.5 19 10.1 E 11 13 6 7 1017.2 1013.1 0.0
28/04:30am 20.9 15.8 -5.0 17 10.9 E 13 17 7 9 1016.7 - 0.0
28/04:00am 21.5 15.6 -5.3 16 11.2 ENE 17 20 9 11 1016.4 - 0.0
28/03:30am 22.2 16.7 -5.6 15 11.7 NE 15 20 8 11 1016.4 - 0.0
28/03:00am 22.6 17.1 -5.3 15 11.8 E 15 22 8 12 1016.3 - 0.0
28/02:30am 21.8 17.3 -6.8 14 11.7 E 9 11 5 6 1016.3 - 0.0
28/02:00am 23.0 17.4 -6.9 13 12.3 E 15 19 8 10 1016.4 1012.3 0.0
28/01:30am 23.8 17.7 -7.3 12 12.8 ENE 17 24 9 13 1016.6 - 0.0
28/01:00am 24.4 18.4 -6.8 12 13.0 ENE 17 24 9 13 1017.0 - 0.0
28/12:30am 24.7 18.2 -7.7 11 13.4 ENE 19 28 10 15 1017.1 - 0.0
28/12:00am 24.4 18.8 -6.8 12 13.0 ENE 15 20 8 11 1017.2 - 0.0
 
Date/Time
CST
Temp
°C
App
Temp
°C
Dew
Point
Rel
Hum
%
Delta-T
°C
Wind Press
QNH
hPa
Press
MSL
hPa
Rain
since 9 am
mm
Dir
 
Spd
km/h
Gust
km/h
Spd
kts
Gust
kts
27/11:30pm 24.9 19.2 -7.5 11 13.4 ENE 15 20 8 11 1017.4 - 0.0
27/11:00pm 26.5 19.1 -7.6 10 14.3 E 24 32 13 17 1017.4 1013.3 0.0
27/10:30pm 26.9 19.8 -8.6 9 14.7 E 22 30 12 16 1017.5 - 0.0
27/10:00pm 27.5 20.8 -8.2 9 15.0 E 20 28 11 15 1017.3 - 0.0
27/09:30pm 27.9 21.2 -7.9 9 15.2 E 20 28 11 15 1017.2 - 0.0
27/09:00pm 28.3 21.8 -7.6 9 15.3 E 19 26 10 14 1017.0 - 0.0
27/08:30pm 28.5 22.7 -8.9 8 15.6 E 15 20 8 11 1016.6 - 0.0
27/08:00pm 29.4 22.9 -8.2 8 16.0 ESE 19 24 10 13 1016.3 1012.2 0.0
27/07:30pm 30.0 23.5 -7.8 8 16.3 ESE 19 26 10 14 1015.9 - 0.0
27/07:00pm 30.7 24.5 -9.0 7 16.9 ESE 17 24 9 13 1015.7 - 0.0
27/06:30pm 31.7 25.6 -8.3 7 17.4 ESE 17 22 9 12 1015.6 - 0.0
27/06:00pm 33.1 26.9 -9.2 6 18.3 ESE 17 22 9 12 1015.2 - 0.0
27/05:30pm 33.4 26.8 -9.0 6 18.5 E 19 28 10 15 1015.1 - 0.0
27/05:00pm 33.2 26.0 -9.2 6 18.4 E 22 32 12 17 1015.0 1010.9 0.0
27/04:30pm 33.8 29.1 -8.7 6 18.7 N 9 22 5 12 1015.2 - 0.0
27/04:00pm 34.2 28.4 -8.5 6 18.9 ESE 15 22 8 12 1015.6 - 0.0
27/03:30pm 34.0 28.2 -8.6 6 18.8 SE 15 30 8 16 1016.0 - 0.0
27/03:00pm 33.6 27.4 -8.9 6 18.6 NE 17 26 9 14 1016.3 - 0.0
27/02:30pm 33.0 26.2 -9.3 6 18.3 ESE 20 32 11 17 1016.6 - 0.0
27/02:00pm 33.3 27.8 -9.1 6 18.4 ENE 13 28 7 15 1017.0 1012.9 0.0
27/01:30pm 33.4 27.6 -9.0 6 18.5 SE 15 20 8 11 1017.4 - 0.0
27/01:00pm 32.3 26.2 -7.8 7 17.7 NNE 17 28 9 15 1017.8 - 0.0
27/12:30pm 33.0 27.9 -9.3 6 18.3 ENE 11 35 6 19 1018.2 - 0.0
27/12:00pm 32.2 25.5 -7.9 7 17.6 NE 20 28 11 15 1018.7 - 0.0
27/11:30am 31.2 24.6 -8.6 7 17.1 ENE 19 32 10 17 1018.8 - 0.0
27/11:00am 31.4 24.3 -8.5 7 17.2 ENE 22 33 12 18 1018.9 1014.8 0.0
27/10:30am 29.9 22.5 -7.9 8 16.3 NNE 24 35 13 19 1019.1 - 0.0
27/10:00am 29.4 21.9 -8.2 8 16.0 ENE 24 33 13 18 1019.5 - 0.0
27/09:30am 28.1 21.1 -7.7 9 15.2 ENE 22 32 12 17 1019.7 - 0.0
27/09:00am 26.2 17.7 -6.5 11 14.0 ENE 30 35 16 19 1019.8 - 0.0
27/08:30am 25.3 17.5 -7.2 11 13.6 ENE 26 35 14 19 1019.8 - 0.0
27/08:00am 25.0 16.8 -7.5 11 13.5 ENE 28 35 15 19 1019.5 1015.5 0.0
27/07:30am 23.8 17.7 -7.3 12 12.8 ENE 17 20 9 11 1019.2 - 0.0
27/07:00am 22.6 16.5 -7.2 13 12.2 ENE 17 22 9 12 1019.1 - 0.0
27/06:30am 22.0 16.4 -6.7 14 11.8 ENE 15 20 8 11 1018.9 - 0.0
27/06:00am 22.1 16.4 -7.6 13 12.0 ENE 15 20 8 11 1018.6 - 0.0
27/05:30am 22.7 16.2 -8.1 12 12.4 E 19 30 10 16 1018.3 - 0.0
27/05:00am 23.0 15.9 -7.9 12 12.5 E 22 35 12 19 1017.8 1013.8 0.0
27/04:30am 23.0 16.0 -6.9 13 12.3 E 22 33 12 18 1017.7 - 0.0
27/04:00am 23.0 16.4 -6.9 13 12.3 E 20 28 11 15 1017.6 - 0.0
27/03:30am 23.3 15.6 -6.6 13 12.4 E 26 41 14 22 1017.5 - 0.0
27/03:00am 23.6 16.2 -7.4 12 12.7 E 24 33 13 18 1017.7 - 0.0
27/02:30am 23.7 17.1 -7.4 12 12.8 E 20 30 11 16 1017.9 - 0.0
27/02:00am 24.1 17.0 -8.2 11 13.1 ESE 22 30 12 16 1018.0 1014.0 0.0
27/01:30am 24.3 17.1 -9.2 10 13.4 ESE 22 37 12 20 1018.0 - 0.0
27/01:00am 24.8 16.5 -8.8 10 13.6 ESE 28 44 15 24 1017.9 - 0.0
27/12:30am 25.2 17.2 -9.9 9 14.0 ESE 26 39 14 21 1018.0 - 0.0
27/12:00am 25.3 16.9 -9.8 9 14.0 SE 28 39 15 21 1018.2 - 0.0
 
Date/Time
CST
Temp
°C
App
Temp
°C
Dew
Point
Rel
Hum
%
Delta-T
°C
Wind Press
QNH
hPa
Press
MSL
hPa
Rain
since 9 am
mm
Dir
 
Spd
km/h
Gust
km/h
Spd
kts
Gust
kts
26/11:30pm 25.2 16.8 -9.9 9 14.0 SE 28 37 15 20 1018.3 - 0.0
26/11:00pm 25.8 17.7 -10.9 8 14.4 SE 26 37 14 20 1018.5 1014.4 0.0
26/10:30pm 26.4 19.0 -12.1 7 14.9 SE 22 32 12 17 1018.3 - 0.0
26/10:00pm 27.0 19.6 -11.7 7 15.2 SE 22 32 12 17 1018.1 - 0.0
26/09:30pm 27.6 20.3 -11.3 7 15.5 ESE 22 33 12 18 1017.9 - 0.0
26/09:00pm 27.6 20.7 -11.3 7 15.5 ESE 20 28 11 15 1017.7 - 0.0
26/08:30pm 27.9 21.0 -11.0 7 15.6 ESE 20 28 11 15 1017.5 - 0.0
26/08:00pm 28.3 22.0 -10.7 7 15.7 SE 17 22 9 12 1017.3 1013.2 0.0
26/07:30pm 29.0 22.3 -10.2 7 16.1 SE 19 24 10 13 1017.1 - 0.0
26/07:00pm 29.6 23.3 -9.8 7 16.4 SE 17 26 9 14 1016.7 - 0.0
26/06:30pm 30.2 24.0 -9.4 7 16.7 SE 17 26 9 14 1016.6 - 0.0
26/06:00pm 30.6 24.0 -9.1 7 16.9 SE 19 26 10 14 1016.3 - 0.0
26/05:30pm 31.7 25.2 -8.3 7 17.4 SSE 19 28 10 15 1016.1 - 0.0
26/05:00pm 32.5 26.0 -7.7 7 17.7 ESE 19 26 10 14 1016.1 1012.0 0.0
26/04:30pm 32.7 26.0 -7.6 7 17.9 SE 20 30 11 16 1016.2 - 0.0
26/04:00pm 33.0 26.7 -5.6 8 17.7 E 19 26 10 14 1016.3 - 0.0
26/03:30pm 32.5 26.0 -6.0 8 17.5 ESE 20 26 11 14 1016.5 - 0.0
26/03:00pm 32.8 25.9 -5.7 8 17.6 SSE 22 32 12 17 1016.7 - 0.0
26/02:30pm 31.5 27.2 -5.2 9 16.8 E 9 22 5 12 1017.1 - 0.0
26/02:00pm 31.5 25.6 -5.2 9 16.7 ESE 17 30 9 16 1017.5 1013.4 0.0
26/01:30pm 31.1 25.7 -4.1 10 16.3 NE 15 24 8 13 1018.0 - 0.0
26/01:00pm 31.5 25.2 -3.8 10 16.5 E 20 30 11 16 1018.5 - 0.0
26/12:30pm 31.3 25.2 -3.9 10 16.4 ESE 19 30 10 16 1019.0 - 0.0
26/12:00pm 30.7 25.5 -3.1 11 15.9 E 15 28 8 15 1019.4 - 0.0
26/11:30am 29.4 23.8 -2.9 12 15.1 E 17 24 9 13 1019.7 - 0.0
26/11:00am 28.6 22.7 -2.5 13 14.5 NE 19 24 10 13 1019.9 1015.9 0.0
26/10:30am 27.7 21.7 -1.3 15 13.8 ENE 20 30 11 16 1020.5 - 0.0
26/10:00am 26.3 19.5 -1.5 16 13.0 ENE 24 32 13 17 1020.5 - 0.0
26/09:30am 26.2 19.1 -1.6 16 13.0 ENE 26 33 14 18 1020.4 - 0.0
26/09:00am 25.6 19.3 -1.2 17 12.6 E 22 32 12 17 1020.6 - 0.0
26/08:30am 24.3 17.0 -3.1 16 12.3 E 26 37 14 20 1020.7 - 0.0
26/08:00am 23.5 16.1 -3.7 16 11.9 E 26 33 14 18 1020.2 1016.1 0.0
26/07:30am 22.8 16.2 -3.5 17 11.5 E 22 32 12 17 1020.3 - 0.0
26/07:00am 21.4 15.5 -5.4 16 11.2 E 17 22 9 12 1019.9 - 0.0
26/06:30am 20.0 14.0 -6.6 16 10.7 ENE 17 22 9 12 1019.6 - 0.0
26/06:00am 19.1 12.7 -6.5 17 10.2 E 19 24 10 13 1019.4 - 0.0
26/05:30am 18.6 13.0 -6.9 17 10.1 E 15 19 8 10 1019.4 - 0.0
26/05:00am 18.6 13.0 -6.9 17 10.0 E 15 20 8 11 1019.1 1015.1 0.0
26/04:30am 19.7 13.1 -6.8 16 10.6 E 20 28 11 15 1019.1 - 0.0
26/04:00am 19.2 13.7 -5.0 19 10.0 E 15 19 8 10 1018.8 - 0.0
26/03:30am 20.3 13.5 -4.8 18 10.5 E 22 28 12 15 1018.8 - 0.0
26/03:00am 20.8 14.5 -4.4 18 10.7 E 20 32 11 17 1019.0 - 0.0
26/02:30am 21.4 14.4 -3.9 18 10.9 E 24 32 13 17 1018.8 - 0.0
26/02:00am 21.4 15.3 -2.5 20 10.5 ESE 20 30 11 16 1019.2 1015.2 0.0
26/01:30am 22.2 15.8 -1.8 20 10.8 ESE 22 32 12 17 1018.9 - 0.0
26/01:00am 22.8 16.6 -0.6 21 10.9 E 22 33 12 18 1019.3 - 0.0
26/12:30am 22.7 16.8 1.7 25 10.2 E 22 28 12 15 1019.2 - 0.0
26/12:00am 23.2 17.9 2.1 25 10.3 E 19 28 10 15 1019.4 - 0.0
 
Date/Time
CST
Temp
°C
App
Temp
°C
Dew
Point
Rel
Hum
%
Delta-T
°C
Wind Press
QNH
hPa
Press
MSL
hPa
Rain
since 9 am
mm
Dir
 
Spd
km/h
Gust
km/h
Spd
kts
Gust
kts
25/11:30pm 23.5 18.5 3.4 27 10.1 ESE 19 28 10 15 1019.6 - 0.0
25/11:00pm 23.5 19.3 4.0 28 9.9 ESE 15 22 8 12 1019.7 1015.7 0.0
25/10:30pm 24.1 19.2 4.0 27 10.3 ESE 19 28 10 15 1019.6 - 0.0
25/10:00pm 24.2 19.7 4.0 27 10.3 ESE 17 24 9 13 1019.5 - 0.0
25/09:30pm 25.0 20.1 4.2 26 10.7 ESE 19 28 10 15 1019.5 - 0.0
25/09:00pm 25.2 20.7 4.3 26 10.8 ESE 17 22 9 12 1019.2 - 0.0
25/08:30pm 25.7 20.6 4.2 25 11.1 ESE 20 28 11 15 1019.2 - 0.0
25/08:00pm 25.9 21.1 4.4 25 11.1 E 19 24 10 13 1019.0 1014.9 0.0
25/07:30pm 26.4 21.5 4.2 24 11.5 ESE 19 24 10 13 1018.6 - 0.0

Other Formats:

Comma delimited format used in spreadsheet applications
http://www.bom.gov.au/fwo/IDD60801/IDD60801.94474.axf

JavaScript Object Notation format (JSON) in row-major order
http://www.bom.gov.au/fwo/IDD60801/IDD60801.94474.json